Wetterdaten: Woche 15.05.06 - 21.05.06 (KW20)
Datum Zeit Temperatur Luftfeuchte Luftdruck Niederschlag Wind Richtung Sonne Solar Taupunkt Windchill
15.05.2006 00:00 11.4 C 93 % 1021.1 hPa 0.0 l/m 0.0 km/h (0 Bft) N 0.00 h 0 W/m 10.2 C 11.4 C
15.05.2006 01:00 10.8 C 96 % 1021.2 hPa 0.0 l/m 0.0 km/h (0 Bft) N 0.00 h 0 W/m 10.1 C 10.8 C
15.05.2006 02:00 10.2 C 97 % 1020.3 hPa 0.0 l/m 0.0 km/h (0 Bft) N 0.00 h 0 W/m 9.7 C 10.2 C
15.05.2006 03:00 9.4 C 98 % 1020.4 hPa 0.0 l/m 0.0 km/h (0 Bft) N 0.00 h 0 W/m 9.1 C 9.4 C
15.05.2006 04:00 8.6 C 100 % 1020.5 hPa 0.0 l/m 0.0 km/h (0 Bft) N 0.00 h 0 W/m 8.6 C 8.6 C
15.05.2006 05:00 8.3 C 99 % 1020.4 hPa 0.0 l/m 0.0 km/h (0 Bft) N 0.00 h 7 W/m 8.1 C 8.3 C
15.05.2006 06:00 8.5 C 99 % 1020.5 hPa 0.0 l/m 0.0 km/h (0 Bft) N 0.18 h 54 W/m 8.3 C 8.5 C
15.05.2006 07:00 9.7 C 97 % 1020.3 hPa 0.0 l/m 0.0 km/h (0 Bft) N 0.78 h 182 W/m 9.2 C 9.7 C
15.05.2006 08:00 11.4 C 87 % 1020.1 hPa 0.0 l/m 0.0 km/h (0 Bft) N 0.93 h 344 W/m 9.3 C 11.4 C
15.05.2006 09:00 14.0 C 74 % 1019.6 hPa 0.0 l/m 0.0 km/h (0 Bft) N 1.00 h 411 W/m 9.4 C 14.0 C
15.05.2006 10:00 15.6 C 67 % 1019.5 hPa 0.0 l/m 0.0 km/h (0 Bft) N 1.00 h 500 W/m 9.4 C 15.6 C
15.05.2006 11:00 17.5 C 62 % 1018.8 hPa 0.0 l/m 0.1 km/h (0 Bft) N 1.00 h 634 W/m 10.1 C 17.5 C
15.05.2006 12:00 19.9 C 55 % 1017.9 hPa 0.0 l/m 1.3 km/h (1 Bft) O-SO 1.00 h 796 W/m 10.6 C 19.9 C
15.05.2006 13:00 21.8 C 50 % 1017.4 hPa 0.0 l/m 3.1 km/h (1 Bft) O-SO 0.77 h 624 W/m 10.8 C 21.8 C
15.05.2006 14:00 22.7 C 46 % 1016.5 hPa 0.0 l/m 1.2 km/h (1 Bft) O-SO 0.97 h 599 W/m 10.4 C 22.7 C
15.05.2006 15:00 23.5 C 45 % 1016.1 hPa 0.0 l/m 5.6 km/h (1 Bft) SO 0.80 h 536 W/m 10.9 C 23.5 C
15.05.2006 16:00 24.1 C 42 % 1015.3 hPa 0.0 l/m 2.0 km/h (1 Bft) W 0.78 h 437 W/m 10.4 C 24.1 C
15.05.2006 17:00 23.0 C 44 % 1015.5 hPa 0.0 l/m 1.7 km/h (1 Bft) W-SW 0.47 h 270 W/m 10.0 C 23.0 C
15.05.2006 18:00 23.1 C 45 % 1015.1 hPa 0.0 l/m 0.6 km/h (0 Bft) W-SW 0.87 h 254 W/m 10.5 C 23.1 C
15.05.2006 19:00 23.1 C 46 % 1014.8 hPa 0.0 l/m 0.3 km/h (0 Bft) W-SW 0.60 h 149 W/m 10.9 C 23.1 C
15.05.2006 20:00 19.5 C 61 % 1015.9 hPa 0.0 l/m 1.0 km/h (0 Bft) O-SO 0.00 h 16 W/m 11.9 C 19.5 C
15.05.2006 21:00 17.7 C 69 % 1016.1 hPa 0.0 l/m 0.4 km/h (0 Bft) O-SO 0.00 h 0 W/m 12.0 C 17.7 C
15.05.2006 22:00 16.2 C 78 % 1016.7 hPa 0.0 l/m 0.0 km/h (0 Bft) N 0.00 h 0 W/m 12.3 C 16.2 C
15.05.2006 23:00 16.0 C 81 % 1017.4 hPa 0.0 l/m 3.1 km/h (1 Bft) O-SO 0.00 h 0 W/m 12.8 C 16.0 C
16.05.2006 00:00 16.0 C 80 % 1017.4 hPa 0.0 l/m 0.3 km/h (0 Bft) O-SO 0.00 h 0 W/m 12.6 C 16.0 C
16.05.2006 01:00 15.7 C 82 % 1017.4 hPa 0.0 l/m 2.9 km/h (1 Bft) O-SO 0.00 h 0 W/m 12.6 C 15.7 C
16.05.2006 02:00 14.9 C 85 % 1017.6 hPa 0.0 l/m 0.0 km/h (0 Bft) N 0.00 h 0 W/m 12.4 C 14.9 C
16.05.2006 03:00 13.8 C 90 % 1017.7 hPa 0.0 l/m 0.0 km/h (0 Bft) N 0.00 h 0 W/m 12.2 C 13.8 C
16.05.2006 04:00 13.3 C 92 % 1018.3 hPa 0.0 l/m 1.1 km/h (1 Bft) O-SO 0.00 h 0 W/m 12.1 C 13.3 C
16.05.2006 05:00 13.7 C 92 % 1018.5 hPa 0.0 l/m 1.7 km/h (1 Bft) O-SO 0.00 h 2 W/m 12.4 C 13.7 C
16.05.2006 06:00 14.6 C 87 % 1018.7 hPa 0.0 l/m 3.6 km/h (1 Bft) SO 0.00 h 15 W/m 12.5 C 14.6 C
16.05.2006 07:00 15.5 C 79 % 1018.8 hPa 0.0 l/m 2.8 km/h (1 Bft) S-SO 0.00 h 95 W/m 11.8 C 15.5 C
16.05.2006 08:00 16.5 C 75 % 1018.4 hPa 0.0 l/m 1.2 km/h (1 Bft) SO 0.23 h 211 W/m 12.1 C 16.5 C
16.05.2006 09:00 18.2 C 69 % 1018.2 hPa 0.0 l/m 4.2 km/h (1 Bft) SO 0.73 h 365 W/m 12.4 C 18.2 C
16.05.2006 10:00 19.3 C 66 % 1017.9 hPa 0.0 l/m 1.4 km/h (1 Bft) SO 0.30 h 303 W/m 12.7 C 19.3 C
16.05.2006 11:00 20.7 C 62 % 1017.6 hPa 0.0 l/m 1.1 km/h (1 Bft) SO 0.47 h 591 W/m 13.2 C 20.7 C
16.05.2006 12:00 18.7 C 62 % 1018.7 hPa 0.0 l/m 24.4 km/h (4 Bft) NW 0.00 h 86 W/m 11.1 C 18.7 C
16.05.2006 13:00 15.5 C 90 % 1019.5 hPa 2.3 l/m 0.0 km/h (0 Bft) N 0.00 h 152 W/m 13.9 C 15.5 C
16.05.2006 14:00 16.2 C 91 % 1019.5 hPa 0.3 l/m 0.6 km/h (0 Bft) S-SO 0.00 h 195 W/m 14.7 C 16.2 C
16.05.2006 15:00 16.5 C 92 % 1019.4 hPa 1.3 l/m 0.1 km/h (0 Bft) N 0.00 h 167 W/m 15.2 C 16.5 C
16.05.2006 16:00 17.5 C 92 % 1017.9 hPa 0.0 l/m 0.1 km/h (0 Bft) N 0.27 h 333 W/m 16.1 C 17.5 C
16.05.2006 17:00 17.6 C 86 % 1018.1 hPa 0.0 l/m 0.2 km/h (0 Bft) W-NW 0.17 h 246 W/m 15.2 C 17.6 C
16.05.2006 18:00 17.4 C 87 % 1018.3 hPa 0.0 l/m 0.1 km/h (0 Bft) N 0.00 h 86 W/m 15.1 C 17.4 C
16.05.2006 19:00 17.1 C 87 % 1017.4 hPa 0.0 l/m 0.0 km/h (0 Bft) N 0.00 h 64 W/m 15.0 C 17.1 C
16.05.2006 20:00 16.6 C 92 % 1017.7 hPa 0.0 l/m 0.0 km/h (0 Bft) N 0.00 h 12 W/m 15.3 C 16.6 C
16.05.2006 21:00 16.2 C 93 % 1018.7 hPa 0.0 l/m 1.8 km/h (1 Bft) SO 0.00 h 0 W/m 15.0 C 16.2 C
16.05.2006 22:00 15.9 C 93 % 1019.3 hPa 0.0 l/m 0.1 km/h (0 Bft) O-SO 0.00 h 0 W/m 14.9 C 15.9 C
16.05.2006 23:00 15.6 C 93 % 1019.4 hPa 0.0 l/m 0.0 km/h (0 Bft) N 0.00 h 0 W/m 14.5 C 15.6 C
17.05.2006 00:00 15.3 C 95 % 1019.6 hPa 0.0 l/m 0.0 km/h (0 Bft) N 0.00 h 0 W/m 14.4 C 15.3 C
17.05.2006 01:00 15.2 C 94 % 1019.6 hPa 0.0 l/m 1.3 km/h (1 Bft) W-NW 0.00 h 0 W/m 14.2 C 15.2 C
17.05.2006 02:00 15.3 C 94 % 1019.6 hPa 0.0 l/m 13.4 km/h (3 Bft) NW 0.00 h 0 W/m 14.3 C 15.3 C
17.05.2006 03:00 15.7 C 88 % 1019.5 hPa 0.0 l/m 19.3 km/h (3 Bft) NW 0.00 h 0 W/m 13.8 C 15.7 C
17.05.2006 04:00 15.6 C 88 % 1020.2 hPa 0.0 l/m 13.1 km/h (3 Bft) NW 0.00 h 0 W/m 13.6 C 15.6 C
17.05.2006 05:00 15.0 C 90 % 1020.6 hPa 0.0 l/m 0.2 km/h (0 Bft) O-SO 0.00 h 6 W/m 13.4 C 15.0 C
17.05.2006 06:00 15.3 C 86 % 1020.6 hPa 0.0 l/m 0.2 km/h (0 Bft) N 0.00 h 22 W/m 12.9 C 15.3 C
17.05.2006 07:00 15.9 C 82 % 1020.5 hPa 0.0 l/m 0.4 km/h (0 Bft) W-SW 0.00 h 68 W/m 12.9 C 15.9 C
17.05.2006 08:00 16.8 C 77 % 1020.5 hPa 0.0 l/m 2.2 km/h (1 Bft) NW 0.27 h 209 W/m 12.8 C 16.8 C
17.05.2006 09:00 17.7 C 72 % 1021.3 hPa 0.0 l/m 3.4 km/h (1 Bft) W 0.77 h 366 W/m 12.5 C 17.7 C
17.05.2006 10:00 18.6 C 66 % 1020.6 hPa 0.0 l/m 4.8 km/h (1 Bft) W-NW 0.43 h 375 W/m 12.2 C 18.6 C
17.05.2006 11:00 19.2 C 64 % 1021.1 hPa 0.0 l/m 5.8 km/h (1 Bft) W-NW 0.93 h 472 W/m 12.1 C 19.2 C
17.05.2006 12:00 20.3 C 62 % 1020.3 hPa 0.0 l/m 3.3 km/h (1 Bft) NW 1.00 h 548 W/m 12.7 C 20.3 C
17.05.2006 13:00 21.2 C 57 % 1019.8 hPa 0.0 l/m 3.5 km/h (1 Bft) W-NW 0.90 h 564 W/m 12.3 C 21.2 C
17.05.2006 14:00 22.1 C 49 % 1019.1 hPa 0.0 l/m 5.8 km/h (2 Bft) W-NW 0.97 h 640 W/m 11.0 C 22.1 C
17.05.2006 15:00 23.7 C 45 % 1018.5 hPa 0.0 l/m 2.3 km/h (1 Bft) W-NW 0.97 h 663 W/m 11.1 C 23.7 C
17.05.2006 16:00 24.2 C 44 % 1017.8 hPa 0.0 l/m 10.6 km/h (2 Bft) NW 1.00 h 558 W/m 11.0 C 24.2 C
17.05.2006 17:00 25.3 C 44 % 1017.3 hPa 0.0 l/m 2.0 km/h (1 Bft) W-NW 1.00 h 507 W/m 12.0 C 25.3 C
17.05.2006 18:00 24.8 C 45 % 1017.2 hPa 0.0 l/m 1.0 km/h (0 Bft) NW 0.67 h 294 W/m 12.1 C 24.8 C
17.05.2006 19:00 23.0 C 54 % 1016.8 hPa 0.0 l/m 0.0 km/h (0 Bft) N 0.07 h 88 W/m 13.2 C 23.0 C
17.05.2006 20:00 21.0 C 67 % 1016.8 hPa 0.0 l/m 3.0 km/h (1 Bft) O-SO 0.23 h 26 W/m 14.7 C 21.0 C
17.05.2006 21:00 19.1 C 76 % 1017.0 hPa 0.0 l/m 0.5 km/h (0 Bft) O-SO 0.00 h 0 W/m 14.8 C 19.1 C
17.05.2006 22:00 18.1 C 80 % 1017.1 hPa 0.0 l/m 0.0 km/h (0 Bft) N 0.00 h 0 W/m 14.6 C 18.1 C
17.05.2006 23:00 17.3 C 84 % 1017.2 hPa 0.0 l/m 0.0 km/h (0 Bft) N 0.00 h 0 W/m 14.6 C 17.3 C
18.05.2006 00:00 16.4 C 87 % 1017.3 hPa 0.0 l/m 0.0 km/h (0 Bft) N 0.00 h 0 W/m 14.3 C 16.4 C
18.05.2006 01:00 15.8 C 90 % 1016.7 hPa 0.0 l/m 0.0 km/h (0 Bft) N 0.00 h 0 W/m 14.2 C 15.8 C
18.05.2006 02:00 15.5 C 91 % 1016.4 hPa 0.0 l/m 0.1 km/h (0 Bft) O-SO 0.00 h 0 W/m 14.0 C 15.5 C
18.05.2006 03:00 15.4 C 92 % 1015.6 hPa 0.0 l/m 1.0 km/h (0 Bft) O-SO 0.00 h 0 W/m 14.1 C 15.4 C
18.05.2006 04:00 15.0 C 94 % 1015.5 hPa 0.0 l/m 0.2 km/h (0 Bft) O-SO 0.00 h 0 W/m 14.0 C 15.0 C
18.05.2006 05:00 14.6 C 95 % 1014.9 hPa 0.0 l/m 0.6 km/h (0 Bft) O-SO 0.00 h 5 W/m 13.8 C 14.6 C
18.05.2006 06:00 14.7 C 96 % 1014.5 hPa 0.0 l/m 0.0 km/h (0 Bft) N 0.00 h 37 W/m 14.0 C 14.7 C
18.05.2006 07:00 15.5 C 93 % 1014.4 hPa 0.0 l/m 0.0 km/h (0 Bft) N 0.00 h 76 W/m 14.4 C 15.5 C
18.05.2006 08:00 16.6 C 89 % 1014.5 hPa 0.0 l/m 0.0 km/h (0 Bft) N 0.00 h 77 W/m 14.8 C 16.6 C
18.05.2006 09:00 16.7 C 89 % 1016.9 hPa 4.6 l/m 19.0 km/h (3 Bft) NW 0.00 h 64 W/m 14.8 C 16.7 C
18.05.2006 10:00 16.6 C 90 % 1017.3 hPa 0.7 l/m 0.7 km/h (0 Bft) O-SO 0.00 h 88 W/m 14.9 C 16.6 C
18.05.2006 11:00 16.9 C 96 % 1016.5 hPa 0.0 l/m 0.8 km/h (0 Bft) O-SO 0.00 h 105 W/m 16.2 C 16.9 C
18.05.2006 12:00 17.0 C 97 % 1017.2 hPa 3.9 l/m 0.5 km/h (0 Bft) O-SO 0.00 h 108 W/m 16.4 C 17.0 C
18.05.2006 13:00 17.2 C 95 % 1016.2 hPa 0.3 l/m 0.2 km/h (0 Bft) SO 0.00 h 143 W/m 16.5 C 17.2 C
18.05.2006 14:00 17.3 C 96 % 1016.2 hPa 2.3 l/m 0.4 km/h (0 Bft) SO 0.00 h 106 W/m 16.6 C 17.3 C
18.05.2006 15:00 17.3 C 96 % 1016.1 hPa 1.6 l/m 3.0 km/h (1 Bft) SO 0.00 h 128 W/m 16.7 C 17.3 C
18.05.2006 16:00 16.8 C 95 % 1015.2 hPa 1.6 l/m 5.0 km/h (1 Bft) SW 0.00 h 101 W/m 16.0 C 16.8 C
18.05.2006 17:00 14.8 C 91 % 1016.5 hPa 2.3 l/m 31.6 km/h (5 Bft) W-NW 0.00 h 82 W/m 13.4 C 14.8 C
18.05.2006 18:00 13.1 C 91 % 1017.5 hPa 2.0 l/m 21.5 km/h (4 Bft) NW 0.00 h 34 W/m 11.7 C 13.1 C
18.05.2006 19:00 13.0 C 97 % 1017.7 hPa 0.3 l/m 1.5 km/h (1 Bft) O-SO 0.00 h 13 W/m 12.5 C 13.0 C
18.05.2006 20:00 13.0 C 96 % 1017.5 hPa 1.0 l/m 0.4 km/h (0 Bft) S-SW 0.00 h 6 W/m 12.5 C 13.0 C
18.05.2006 21:00 12.9 C 98 % 1016.8 hPa 0.3 l/m 0.1 km/h (0 Bft) N 0.00 h 0 W/m 12.6 C 12.9 C
18.05.2006 22:00 12.5 C 100 % 1017.6 hPa 0.0 l/m 0.9 km/h (0 Bft) SO 0.00 h 0 W/m 12.5 C 12.5 C
18.05.2006 23:00 11.7 C 100 % 1018.0 hPa 0.0 l/m 0.0 km/h (0 Bft) N 0.00 h 0 W/m 11.7 C 11.7 C
19.05.2006 00:00 11.3 C 100 % 1018.0 hPa 0.0 l/m 0.0 km/h (0 Bft) N 0.00 h 0 W/m 11.3 C 11.3 C
19.05.2006 01:00 10.8 C 100 % 1018.1 hPa 0.0 l/m 0.0 km/h (0 Bft) N 0.00 h 0 W/m 10.8 C 10.8 C
19.05.2006 02:00 10.3 C 100 % 1018.2 hPa 0.0 l/m 0.0 km/h (0 Bft) N 0.00 h 0 W/m 10.3 C 10.3 C
19.05.2006 03:00 10.0 C 100 % 1017.7 hPa 0.0 l/m 0.4 km/h (0 Bft) SO 0.00 h 0 W/m 10.0 C 10.0 C
19.05.2006 04:00 10.2 C 100 % 1018.1 hPa 0.0 l/m 1.1 km/h (0 Bft) SO 0.00 h 0 W/m 10.2 C 10.2 C
19.05.2006 05:00 10.3 C 100 % 1018.2 hPa 0.0 l/m 1.1 km/h (1 Bft) SO 0.03 h 9 W/m 10.3 C 10.3 C
19.05.2006 06:00 10.1 C 100 % 1018.2 hPa 0.0 l/m 0.6 km/h (0 Bft) O-NO 0.13 h 52 W/m 10.0 C 10.1 C
19.05.2006 07:00 11.1 C 96 % 1018.1 hPa 0.0 l/m 1.0 km/h (0 Bft) W-NW 1.00 h 295 W/m 10.5 C 11.1 C
19.05.2006 08:00 12.6 C 88 % 1017.9 hPa 0.0 l/m 1.5 km/h (1 Bft) W-SW 1.00 h 428 W/m 10.6 C 12.6 C
19.05.2006 09:00 14.1 C 71 % 1016.9 hPa 0.0 l/m 14.4 km/h (3 Bft) NW 0.87 h 499 W/m 8.9 C 14.1 C
19.05.2006 10:00 15.2 C 59 % 1016.5 hPa 0.0 l/m 27.9 km/h (4 Bft) W-NW 0.53 h 487 W/m 7.1 C 15.2 C
19.05.2006 11:00 15.8 C 54 % 1016.9 hPa 0.0 l/m 23.5 km/h (4 Bft) NW 0.40 h 535 W/m 6.6 C 15.8 C
19.05.2006 12:00 17.0 C 49 % 1016.2 hPa 0.0 l/m 24.7 km/h (4 Bft) NW 0.73 h 685 W/m 6.3 C 17.0 C
19.05.2006 13:00 17.6 C 47 % 1015.7 hPa 0.0 l/m 32.1 km/h (5 Bft) NW 0.67 h 719 W/m 6.2 C 17.6 C
19.05.2006 14:00 18.1 C 45 % 1015.1 hPa 0.0 l/m 34.1 km/h (5 Bft) NW 0.90 h 794 W/m 6.0 C 18.1 C
19.05.2006 15:00 18.8 C 42 % 1014.9 hPa 0.0 l/m 31.6 km/h (5 Bft) NW 0.97 h 727 W/m 5.6 C 18.8 C
19.05.2006 16:00 19.7 C 38 % 1013.8 hPa 0.0 l/m 31.0 km/h (5 Bft) NW 1.00 h 656 W/m 4.8 C 19.7 C
19.05.2006 17:00 18.7 C 42 % 1013.7 hPa 0.0 l/m 25.1 km/h (4 Bft) NW 1.00 h 391 W/m 5.3 C 18.7 C
19.05.2006 18:00 17.2 C 46 % 1013.4 hPa 0.0 l/m 24.7 km/h (4 Bft) NW 0.10 h 180 W/m 5.6 C 17.2 C
19.05.2006 19:00 16.3 C 48 % 1013.9 hPa 0.0 l/m 21.6 km/h (4 Bft) NW 0.00 h 80 W/m 5.4 C 16.3 C
19.05.2006 20:00 15.5 C 51 % 1014.4 hPa 0.0 l/m 8.8 km/h (2 Bft) NW 0.00 h 19 W/m 5.3 C 15.5 C
19.05.2006 21:00 15.0 C 54 % 1014.4 hPa 0.0 l/m 14.1 km/h (3 Bft) NW 0.00 h 0 W/m 5.7 C 15.0 C
19.05.2006 22:00 14.5 C 52 % 1014.5 hPa 0.0 l/m 16.3 km/h (3 Bft) NW 0.00 h 0 W/m 4.9 C 14.5 C
19.05.2006 23:00 13.6 C 58 % 1014.6 hPa 0.0 l/m 6.0 km/h (2 Bft) W-NW 0.00 h 0 W/m 5.5 C 13.6 C
20.05.2006 00:00 13.2 C 58 % 1014.7 hPa 0.0 l/m 1.6 km/h (1 Bft) W-NW 0.00 h 0 W/m 5.2 C 13.2 C
20.05.2006 01:00 12.7 C 60 % 1013.7 hPa 0.0 l/m 0.1 km/h (0 Bft) N 0.00 h 0 W/m 5.2 C 12.7 C
20.05.2006 02:00 12.3 C 64 % 1013.3 hPa 0.0 l/m 0.0 km/h (0 Bft) N 0.00 h 0 W/m 5.6 C 12.3 C
20.05.2006 03:00 11.8 C 72 % 1012.7 hPa 0.0 l/m 0.0 km/h (0 Bft) N 0.00 h 0 W/m 6.9 C 11.8 C
20.05.2006 04:00 11.7 C 75 % 1011.6 hPa 0.0 l/m 0.0 km/h (0 Bft) N 0.00 h 0 W/m 7.3 C 11.7 C
20.05.2006 05:00 11.4 C 76 % 1010.7 hPa 0.0 l/m 0.4 km/h (0 Bft) SO 0.00 h 4 W/m 7.3 C 11.4 C
20.05.2006 06:00 11.5 C 77 % 1009.9 hPa 0.0 l/m 0.0 km/h (0 Bft) N 0.17 h 47 W/m 7.5 C 11.5 C
20.05.2006 07:00 12.3 C 75 % 1009.6 hPa 0.0 l/m 0.0 km/h (0 Bft) N 0.30 h 119 W/m 8.1 C 12.3 C
20.05.2006 08:00 12.8 C 71 % 1008.8 hPa 0.0 l/m 0.5 km/h (0 Bft) SO 0.00 h 100 W/m 7.7 C 12.8 C
20.05.2006 09:00 13.6 C 66 % 1007.7 hPa 0.0 l/m 5.8 km/h (2 Bft) S-SO 0.00 h 207 W/m 7.3 C 13.6 C
20.05.2006 10:00 14.3 C 64 % 1007.2 hPa 0.0 l/m 6.4 km/h (2 Bft) S 0.00 h 214 W/m 7.6 C 14.3 C
20.05.2006 11:00 15.7 C 55 % 1006.2 hPa 0.0 l/m 11.6 km/h (2 Bft) W-NW 0.00 h 270 W/m 6.6 C 15.7 C
20.05.2006 12:00 13.6 C 71 % 1006.3 hPa 0.7 l/m 2.5 km/h (1 Bft) W 0.00 h 143 W/m 8.4 C 13.6 C
20.05.2006 13:00 12.8 C 78 % 1006.4 hPa 0.7 l/m 6.9 km/h (2 Bft) SW 0.00 h 104 W/m 9.0 C 12.8 C
20.05.2006 14:00 13.3 C 74 % 1006.3 hPa 0.3 l/m 12.1 km/h (2 Bft) SW 0.00 h 112 W/m 8.8 C 13.3 C
20.05.2006 15:00 14.2 C 69 % 1005.9 hPa 0.0 l/m 13.5 km/h (3 Bft) W 0.00 h 164 W/m 8.5 C 14.2 C
20.05.2006 16:00 15.9 C 62 % 1004.9 hPa 0.0 l/m 23.3 km/h (4 Bft) SW 0.23 h 366 W/m 8.6 C 15.9 C
20.05.2006 17:00 16.6 C 56 % 1004.8 hPa 0.0 l/m 32.0 km/h (5 Bft) W-NW 0.05 h 189 W/m 7.6 C 16.6 C
20.05.2006 18:00 13.6 C 83 % 1006.5 hPa 1.0 l/m 24.6 km/h (4 Bft) W-NW 0.00 h 69 W/m 10.7 C 13.6 C
20.05.2006 19:00 13.2 C 87 % 1006.9 hPa 0.0 l/m 20.3 km/h (4 Bft) W-NW 0.00 h 54 W/m 11.1 C 13.2 C
20.05.2006 20:00 13.5 C 86 % 1007.3 hPa 0.0 l/m 20.6 km/h (4 Bft) NW 0.00 h 9 W/m 11.1 C 13.5 C
20.05.2006 21:00 13.1 C 81 % 1007.8 hPa 0.0 l/m 17.1 km/h (3 Bft) NW 0.00 h 0 W/m 10.0 C 13.1 C
20.05.2006 22:00 12.8 C 72 % 1008.5 hPa 0.0 l/m 10.9 km/h (2 Bft) NW 0.00 h 0 W/m 7.8 C 12.8 C
20.05.2006 23:00 13.3 C 65 % 1008.5 hPa 0.0 l/m 6.5 km/h (2 Bft) W-NW 0.00 h 0 W/m 6.9 C 13.3 C
21.05.2006 00:00 13.5 C 65 % 1008.4 hPa 0.0 l/m 14.1 km/h (3 Bft) NW 0.00 h 0 W/m 7.1 C 13.5 C
21.05.2006 01:00 13.4 C 66 % 1008.5 hPa 0.0 l/m 11.5 km/h (2 Bft) NW 0.00 h 0 W/m 7.1 C 13.4 C
21.05.2006 02:00 13.1 C 68 % 1009.5 hPa 0.0 l/m 13.0 km/h (3 Bft) NW 0.00 h 0 W/m 7.2 C 13.1 C
21.05.2006 03:00 12.4 C 73 % 1009.6 hPa 0.0 l/m 9.9 km/h (2 Bft) NW 0.00 h 0 W/m 7.6 C 12.4 C
21.05.2006 04:00 12.7 C 70 % 1009.5 hPa 0.0 l/m 16.0 km/h (3 Bft) NW 0.00 h 0 W/m 7.4 C 12.7 C
21.05.2006 05:00 12.6 C 67 % 1009.5 hPa 0.0 l/m 10.1 km/h (2 Bft) W-NW 0.00 h 3 W/m 6.7 C 12.6 C
21.05.2006 06:00 12.6 C 65 % 1009.8 hPa 0.0 l/m 15.6 km/h (3 Bft) W-NW 0.00 h 12 W/m 6.1 C 12.6 C
21.05.2006 07:00 12.1 C 66 % 1010.8 hPa 0.0 l/m 18.7 km/h (3 Bft) NW 0.00 h 58 W/m 6.0 C 12.1 C
21.05.2006 08:00 11.0 C 78 % 1011.8 hPa 0.3 l/m 8.3 km/h (2 Bft) W-NW 0.00 h 92 W/m 7.3 C 11.0 C
21.05.2006 09:00 10.7 C 85 % 1012.5 hPa 0.3 l/m 7.4 km/h (2 Bft) W-NW 0.00 h 139 W/m 8.3 C 10.7 C
21.05.2006 10:00 11.2 C 85 % 1012.9 hPa 0.0 l/m 2.1 km/h (1 Bft) W-NW 0.00 h 238 W/m 8.7 C 11.2 C
21.05.2006 11:00 12.7 C 78 % 1012.0 hPa 0.0 l/m 0.1 km/h (0 Bft) N 0.27 h 403 W/m 8.8 C 12.7 C
21.05.2006 12:00 13.9 C 73 % 1011.5 hPa 0.0 l/m 1.1 km/h (1 Bft) O-SO 0.37 h 433 W/m 9.1 C 13.9 C
21.05.2006 13:00 16.0 C 64 % 1011.2 hPa 0.3 l/m 1.6 km/h (1 Bft) O-SO 0.82 h 615 W/m 9.0 C 16.0 C
21.05.2006 14:00 17.7 C 58 % 1010.5 hPa 0.0 l/m 1.3 km/h (1 Bft) NW 0.72 h 624 W/m 9.3 C 17.7 C
21.05.2006 15:00 19.3 C 51 % 1009.5 hPa 0.0 l/m 2.8 km/h (1 Bft) SW 0.90 h 676 W/m 8.9 C 19.3 C
21.05.2006 16:00 21.5 C 42 % 1008.4 hPa 0.0 l/m 7.6 km/h (2 Bft) NW 0.90 h 603 W/m 8.2 C 21.5 C
21.05.2006 17:00 20.1 C 43 % 1008.6 hPa 0.0 l/m 4.6 km/h (1 Bft) NW 0.28 h 231 W/m 7.1 C 20.1 C
21.05.2006 18:00 21.3 C 43 % 1007.5 hPa 0.0 l/m 1.7 km/h (1 Bft) W-NW 0.90 h 260 W/m 8.1 C 21.3 C
21.05.2006 19:00 20.4 C 45 % 1007.5 hPa 0.0 l/m 0.2 km/h (0 Bft) W-NW 0.98 h 259 W/m 8.1 C 20.4 C
21.05.2006 20:00 18.4 C 55 % 1007.7 hPa 0.0 l/m 0.9 km/h (0 Bft) O-SO 0.57 h 73 W/m 9.1 C 18.4 C
21.05.2006 21:00 15.1 C 73 % 1008.2 hPa 0.0 l/m 3.9 km/h (1 Bft) O-SO 0.00 h 0 W/m 10.2 C 15.1 C
21.05.2006 22:00 12.9 C 83 % 1008.5 hPa 0.0 l/m 0.0 km/h (0 Bft) N 0.00 h 0 W/m 10.0 C 12.9 C
21.05.2006 23:00 11.5 C 89 % 1008.6 hPa 0.0 l/m 0.0 km/h (0 Bft) N 0.00 h 0 W/m 9.8 C 11.5 C
Min-Datum _ 15.05.06 19.05.06 20.05.06 - 15.05.06 - - - 19.05.06 15.05.06
_ Min-Zeit 05:02 16:30 17:20 - 00:02 - - - 16:24 05:02
Minimum _ 8.1 C 35 % 1003.8 hPa - 0.0 km/h (0 Bft) - - - 3.8 C 8.1 C
Max-Datum _ 17.05.06 15.05.06 17.05.06 18.05.06 20.05.06 - 15.05.06 21.05.06 18.05.06 17.05.06
_ Max-Zeit 17:33 03:08 08:55 09:06 17:40 - 07:02 13:27 15:25 17:33
Maximum _ 26.2 C 100 % 1021.4 hPa 4.6 l/m 56.5 km/h
W-NW (7 Bft)
- 0.05 h 1022 W/m 17.2 C 26.2 C
Durchschnitt _ 15.6 C 75 % 1015.2 hPa #28.4 l/m 5.7 km/h (1 Bft) NW #39:18 h 257 W/m 10.7 C 15.6 C
© Kaiko 2006